• Join FlightAware (Why Join?)
  • Login
  • US Flag 
05:36PM EDT


 

Airport Tracker/Info


-or-


 

Live Flight TrackerFlight Track Log ✈ SWA706 ✈ 18-May-2013 ✈ KBWI - KHOU

Flight Track Log - Related Links

Times and Time Zones

All times are in EDT time to prevent confusion due to time zone crossing. See the SWA706 flight status page for this flight to view local times or setup timezone preferences in your user account.

Time Position Orientation Groundspeed Altitude Reporting Facility
EDT Latitude Longitude Course Direction KTS MPH feet Rate Location/Type
08:38AM 39.1333 -76.6667 207° Southwest 197 227 2,800  Level Potomac TRACON
08:39AM 39.1500 -76.7333 288° West 222 255 6,600 2,100 Climbing Potomac TRACON
08:40AM 39.1667 -76.8333 282° West 272 313 7,100 1,380 Climbing Potomac TRACON
08:41AM 39.2000 -76.9167 297° West 281 323 9,300 2,940 Climbing Potomac TRACON
08:42AM 39.2167 -77.0167 282° West 290 334 12,700 2,880 Climbing Potomac TRACON
08:43AM 39.2167 -77.1167 270° West 330 380 15,200 2,280 Climbing Potomac TRACON
08:44AM 38.9941 -77.3206 207° Southwest  Level FlightAware Approximate
08:44AM 39.1500 -77.2167 229° Southwest 381 438 17,300  Level Potomac TRACON
08:45AM 39.0500 -77.3000 213° Southwest 412 474 19,300 2,160 Climbing Potomac TRACON
08:47AM 38.8767 -77.4128 207° Southwest 455 524 23,000 1,380 Climbing Washington Center
08:48AM 38.7650 -77.4847 207° Southwest 448 516 23,000 360 Level Washington Center
08:49AM 38.6614 -77.5725 213° Southwest 443 510 23,800 1,320 Climbing Washington Center
08:50AM 38.5661 -77.6708 219° Southwest 443 510 25,700 1,680 Climbing Washington Center
08:51AM 38.4764 -77.7875 226° Southwest 453 521 27,200 1,860 Climbing Washington Center
08:52AM 38.4072 -77.9206 236° Southwest 459 528 29,400 1,380 Climbing Washington Center
08:53AM 38.3356 -78.0561 236° Southwest 459 528 30,100 840 Climbing Washington Center
08:54AM 38.2661 -78.1886 236° Southwest 459 528 31,100 900 Climbing Washington Center
08:55AM 38.1861 -78.3153 231° Southwest 459 528 32,000 900 Climbing Washington Center
08:56AM 38.1042 -78.4286 227° Southwest 459 528 33,000 1,260 Climbing Washington Center
08:57AM 38.0264 -78.5442 230° Southwest 442 509 34,500 1,500 Climbing Washington Center
08:58AM 37.9550 -78.6467 229° Southwest 437 503 36,000 1,380 Climbing Washington Center
08:59AM 37.8728 -78.7617 228° Southwest 437 503 37,300 960 Climbing Washington Center
09:00AM 37.8131 -78.8881 239° Southwest 437 503 38,000 300 Climbing Washington Center
09:01AM 37.7531 -79.0194 240° Southwest 437 503 38,000  Level Washington Center
09:02AM 37.6864 -79.1608 239° Southwest 429 494 38,000  Level Washington Center
09:03AM 37.6261 -79.2917 240° Southwest 429 494 38,000  Level Washington Center
09:04AM 37.5636 -79.4197 238° Southwest 429 494 38,000  Level Washington Center
09:05AM 37.5072 -79.5478 241° Southwest 429 494 38,000  Level Washington Center
09:06AM 37.4469 -79.6728 239° Southwest 429 494 38,000  Level Washington Center
09:08AM 37.3142 -79.9475 239° Southwest 438 504 38,000  Level Atlanta Center
09:09AM 37.2536 -80.0731 239° Southwest 438 504 38,000  Level Atlanta Center
09:10AM 37.1931 -80.2011 239° Southwest 438 504 38,000  Level Atlanta Center
09:11AM 37.1303 -80.3317 239° Southwest 438 504 38,000  Level Atlanta Center
09:12AM 37.0636 -80.4703 239° Southwest 438 504 38,000  Level Atlanta Center
09:13AM 37.0028 -80.5978 239° Southwest 433 498 38,000  Level Atlanta Center
09:14AM 36.9414 -80.7225 238° Southwest 433 498 38,000  Level Atlanta Center
09:15AM 36.8822 -80.8469 239° Southwest 433 498 38,000  Level Atlanta Center
09:16AM 36.8267 -80.9581 238° Southwest 433 498 38,000  Level Atlanta Center
09:17AM 36.7672 -81.0822 239° Southwest 428 493 38,000  Level Atlanta Center
09:18AM 36.7117 -81.2006 240° Southwest 417 480 38,000  Level Atlanta Center
09:19AM 36.6478 -81.3322 239° Southwest 417 480 38,000  Level Atlanta Center
09:20AM 36.5881 -81.4558 239° Southwest 417 480 38,000  Level Atlanta Center
09:21AM 36.5319 -81.5661 238° Southwest 417 480 38,000  Level Atlanta Center
09:22AM 36.4678 -81.6997 239° Southwest 417 480 38,000  Level Atlanta Center
09:23AM 36.4075 -81.8228 239° Southwest 417 480 38,000  Level Atlanta Center
09:24AM 36.3508 -81.9275 236° Southwest 422 486 38,000  Level Atlanta Center
09:25AM 36.2903 -82.0500 239° Southwest 427 491 38,000  Level Atlanta Center
09:26AM 36.2236 -82.1856 239° Southwest 419 482 38,000  Level Atlanta Center
09:27AM 36.1669 -82.2925 237° Southwest 419 482 38,000  Level Atlanta Center
09:28AM 36.1017 -82.4147 237° Southwest 419 482 38,000  Level Atlanta Center
09:29AM 36.0347 -82.5469 238° Southwest 419 482 38,000  Level Atlanta Center
09:30AM 35.9714 -82.6711 238° Southwest 426 490 38,000  Level Atlanta Center
09:31AM 35.9081 -82.7928 237° Southwest 426 490 38,000  Level Atlanta Center
09:32AM 35.8444 -82.9192 238° Southwest 431 496 38,000  Level Atlanta Center
09:33AM 35.7789 -83.0431 237° Southwest 431 496 38,000  Level Atlanta Center
09:34AM 35.7153 -83.1667 238° Southwest 431 496 38,000  Level Atlanta Center
09:35AM 35.6556 -83.2872 239° Southwest 431 496 38,000  Level Atlanta Center
09:36AM 35.5914 -83.4081 237° Southwest 431 496 38,000  Level Atlanta Center
09:37AM 35.5275 -83.5308 237° Southwest 431 496 38,000  Level Atlanta Center
09:38AM 35.4631 -83.6536 237° Southwest 431 496 38,000  Level Atlanta Center
09:39AM 35.3989 -83.7739 237° Southwest 436 502 38,000  Level Atlanta Center
09:40AM 35.3425 -83.8861 238° Southwest 436 502 38,000  Level Atlanta Center
09:41AM 35.2758 -84.0058 236° Southwest 436 502 38,000  Level Atlanta Center
09:42AM 35.2114 -84.1278 237° Southwest 436 502 38,000  Level Atlanta Center
09:43AM 35.1486 -84.2444 237° Southwest 436 502 38,000  Level Atlanta Center
09:44AM 35.0836 -84.3661 237° Southwest 431 496 38,000  Level Atlanta Center
09:45AM 35.0186 -84.4850 236° Southwest 431 496 38,000  Level Atlanta Center
09:46AM 34.9533 -84.6039 236° Southwest 431 496 38,000  Level Atlanta Center
09:47AM 34.8900 -84.7250 238° Southwest 431 496 38,000  Level Atlanta Center
09:48AM 34.8225 -84.8458 236° Southwest 431 496 38,000  Level Atlanta Center
09:49AM 34.7592 -84.9667 237° Southwest 436 502 38,000  Level Atlanta Center
09:50AM 34.6936 -85.0847 236° Southwest 436 502 38,000  Level Atlanta Center
09:51AM 34.6256 -85.2025 235° Southwest 436 502 38,000  Level Atlanta Center
09:52AM 34.5619 -85.3228 237° Southwest 436 502 38,000  Level Atlanta Center
09:53AM 34.4958 -85.4400 236° Southwest 436 502 38,000  Level Atlanta Center
09:54AM 34.4339 -85.5575 237° Southwest 431 496 38,000  Level Atlanta Center
09:55AM 34.3633 -85.6869 237° Southwest 426 490 38,000  Level Atlanta Center
09:56AM 34.2972 -85.8039 236° Southwest 426 490 38,000  Level Atlanta Center
09:57AM 34.2308 -85.9131 234° Southwest 421 484 38,000  Level Atlanta Center
09:58AM 34.1644 -86.0272 235° Southwest 421 484 38,000  Level Atlanta Center
09:59AM 34.1019 -86.1436 237° Southwest 421 484 38,000  Level Atlanta Center
10:00AM 34.0353 -86.2572 235° Southwest 421 484 38,000  Level Atlanta Center
10:01AM 33.9683 -86.3758 236° Southwest 421 484 38,000  Level Atlanta Center
10:02AM 33.9075 -86.4917 238° Southwest 421 484 38,000  Level Atlanta Center
10:03AM 33.8569 -86.6178 244° Southwest 421 484 38,000  Level Atlanta Center
10:04AM 33.8019 -86.7486 243° Southwest 421 484 38,000  Level Atlanta Center
10:05AM 33.7511 -86.8769 245° Southwest 426 490 38,000  Level Atlanta Center
10:06AM 33.6981 -87.0025 243° Southwest 426 490 38,000  Level Atlanta Center
10:07AM 33.6469 -87.1306 244° Southwest 426 490 38,000  Level Atlanta Center
10:09AM 33.5600 -87.3383 243° Southwest 428 493 38,000  Level Memphis Center
10:10AM 33.5086 -87.4647 244° Southwest 428 493 38,000  Level Memphis Center
10:11AM 33.4553 -87.5911 243° Southwest 428 493 38,000  Level Memphis Center
10:12AM 33.4017 -87.7194 243° Southwest 428 493 38,000  Level Memphis Center
10:13AM 33.3500 -87.8456 244° Southwest 428 493 38,000  Level Memphis Center
10:14AM 33.2961 -87.9664 242° Southwest 428 493 38,000  Level Memphis Center
10:15AM 33.2461 -88.0944 245° Southwest 423 487 38,000  Level Memphis Center
10:16AM 33.1961 -88.2197 245° Southwest 423 487 38,000  Level Memphis Center
10:17AM 33.1439 -88.3425 243° Southwest 423 487 38,000  Level Memphis Center
10:18AM 33.0936 -88.4553 242° Southwest 430 495 38,000  Level Memphis Center
10:19AM 33.0392 -88.5828 243° Southwest 430 495 38,000  Level Memphis Center
10:20AM 32.9844 -88.7103 243° Southwest 430 495 38,000  Level Memphis Center
10:21AM 32.9278 -88.8375 242° Southwest 430 495 38,000  Level Memphis Center
10:22AM 32.8750 -88.9647 244° Southwest 430 495 38,000  Level Memphis Center
10:23AM 32.8178 -89.0917 242° Southwest 430 495 38,000  Level Memphis Center
10:24AM 32.7606 -89.2183 242° Southwest 430 495 38,000  Level Memphis Center
10:25AM 32.7053 -89.3450 243° Southwest 435 501 38,000  Level Memphis Center
10:26AM 32.6500 -89.4692 242° Southwest 435 501 38,000  Level Memphis Center
10:27AM 32.5944 -89.5953 242° Southwest 435 501 38,000  Level Memphis Center
10:28AM 32.5386 -89.7217 242° Southwest 435 501 38,000  Level Memphis Center
10:29AM 32.4789 -89.8550 242° Southwest 435 501 38,000  Level Memphis Center
10:30AM 32.4228 -89.9783 242° Southwest 430 495 38,000  Level Memphis Center
10:31AM 32.3669 -90.1039 242° Southwest 430 495 38,000  Level Memphis Center
10:32AM 32.3128 -90.2244 242° Southwest 430 495 38,000  Level Memphis Center
10:33AM 32.2628 -90.3378 242° Southwest 430 495 38,000  Level Memphis Center
10:34AM 32.2064 -90.4581 241° Southwest 430 495 38,000  Level Memphis Center
10:35AM 32.1519 -90.5806 242° Southwest 430 495 38,000  Level Memphis Center
10:36AM 32.1033 -90.6889 242° Southwest 418 481 38,000  Level Houston Center
10:37AM 32.0436 -90.8219 242° Southwest 419 482 38,000  Level Houston Center
10:38AM 31.9900 -90.9406 242° Southwest 413 475 38,000  Level Houston Center
10:39AM 31.9344 -91.0608 241° Southwest 415 478 38,000  Level Houston Center
10:40AM 31.8778 -91.1803 241° Southwest 419 482 38,000  Level Houston Center
10:41AM 31.8231 -91.2994 242° Southwest 415 478 38,000  Level Houston Center
10:42AM 31.7667 -91.4197 241° Southwest 418 481 38,000  Level Houston Center
10:43AM 31.6989 -91.5647 241° Southwest 423 487 38,000  Level Houston Center
10:44AM 31.6433 -91.6853 242° Southwest 421 484 38,000  Level Houston Center
10:45AM 31.5878 -91.8053 242° Southwest 419 482 38,000  Level Houston Center
10:46AM 31.5303 -91.9242 240° Southwest 418 481 38,000  Level Houston Center
10:47AM 31.4719 -92.0475 241° Southwest 412 474 38,000  Level Houston Center
10:48AM 31.4156 -92.1642 240° Southwest 410 472 38,000  Level Houston Center
10:49AM 31.3608 -92.2808 241° Southwest 410 472 38,000  Level Houston Center
10:50AM 31.3047 -92.3978 241° Southwest 414 476 38,000  Level Houston Center
10:51AM 31.2483 -92.5150 241° Southwest 416 479 38,000  Level Houston Center
10:52AM 31.2053 -92.6358 247° West 409 471 38,000  Level Houston Center
10:53AM 31.1528 -92.7825 247° West 407 468 38,000  Level Houston Center
10:54AM 31.1278 -92.9061 257° West 401 461 38,000  Level Houston Center
10:55AM 31.1325 -93.0356 272° West 402 463 38,000  Level Houston Center
10:56AM 31.1383 -93.1631 273° West 398 458 38,000  Level Houston Center
10:57AM 31.1444 -93.2919 273° West 398 458 38,000 -60 Level Houston Center
10:58AM 31.1144 -93.4125 254° West 405 466 37,900 -300 Descending Houston Center
10:59AM 31.0408 -93.5464 237° Southwest 411 473 37,400 -720 Descending Houston Center
11:00AM 30.9781 -93.6583 237° Southwest 415 478 36,500 -960 Descending Houston Center
11:01AM 30.9156 -93.7711 237° Southwest 417 480 35,500 -1,500 Descending Houston Center
11:02AM 30.8519 -93.8861 237° Southwest 424 488 33,500 -2,400 Descending Houston Center
11:03AM 30.7881 -93.9989 237° Southwest 422 486 30,600 -2,580 Descending Houston Center
11:05AM 30.7256 -94.1106 237° Southwest 418 481 28,200 -2,520 Descending Houston Center
11:06AM 30.6531 -94.2392 237° Southwest 399 459 25,400 -2,520 Descending Houston Center
11:07AM 30.5942 -94.3428 237° Southwest 389 448 23,100 -2,280 Descending Houston Center
11:07AM 30.5719 -94.3808 236° Southwest 380 437 22,300 -2,040 Descending Houston Center
11:08AM 30.5372 -94.4431 237° Southwest 377 434 21,000 -2,160 Descending Houston Center
11:08AM 30.4842 -94.5356 236° Southwest 366 421 19,000 -2,280 Descending Houston Center
11:09AM 30.4219 -94.6308 233° Southwest 361 415 16,800 -2,220 Descending Houston Center
11:11AM 30.3614 -94.7236 233° Southwest 363 418 14,500 -2,160 Descending Houston Center
11:12AM 30.2972 -94.8211 233° Southwest 362 417 12,500 -1,740 Descending Houston Center
11:13AM 30.2331 -94.9242 234° Southwest 345 397 10,600 -1,260 Descending Houston Center
11:14AM 30.1858 -94.9972 233° Southwest 328 377 10,000 -360 Descending Houston Center
11:15AM 30.1256 -95.0725 227° Southwest 328 377 10,000  Level Houston Center
11:16AM 30.0350 -95.1150 202° Southwest 284 327 10,000  Level Houston Center
11:17AM 29.9683 -95.1425 200° South 283 326 10,000 60 Level Houston Center
11:17AM 29.9631 -95.1450 202° Southwest 284 327 10,100 -1,140 Climbing Houston Center
11:18AM 29.8936 -95.1758 201° Southwest 286 329 8,900 -1,320 Descending Houston Center
11:18AM 29.8903 -95.1769 196° South 282 325 8,800 -1,500 Descending Houston Center
11:19AM 29.8269 -95.2033 200° South 274 315 7,500 -2,160 Descending Houston Center
11:19AM 29.8033 -95.2139 201° Southwest 278 320 6,600 -1,860 Descending Houston Center
11:20AM 29.7786 -95.2717 244° Southwest 280 322 5,500 -1,560 Descending Houston Center
11:20AM 29.7797 -95.2919 274° West 277 319 5,000 -1,440 Descending Houston Center
11:21AM 29.7794 -95.3486 270° West 264 304 4,200 -720 Descending Houston Center
11:21AM 29.7806 -95.3747 273° West 269 310 4,300 -1,020 Climbing Houston Center
11:22AM 29.7603 -95.4136 239° Southwest 167 192 3,100 -1,500 Descending Houston Center
11:22AM 29.7522 -95.4139 182° South 212 244 2,800 -1,320 Descending Houston Center
11:23AM 29.7319 -95.3808 125° Southeast 182 209 1,900 -900 Descending Houston Center
11:23AM 29.7236 -95.3719 137° Southeast 186 214 1,900 -360 Level Houston Center
11:24AM 29.7042 -95.3506 136° Southeast 158 182 1,600 -600 Descending Houston Center
11:24AM 29.6933 -95.3372 133° Southeast 166 191 1,300 -840 Descending Houston Center
11:25AM 29.6733 -95.3133 134° Southeast 128 147 700 -900 Descending Houston Center
11:25AM 29.6633 -95.3006 132° Southeast 146 168 400 -720 Descending Houston Center
11:28AM 29.6454 -95.2789 134° Southeast  Level Estimated